Time;durP1;ratioP1;P1;durP2;ratioP2;P2;SDS_P1;SDS_P2;PMS_P1;PMS_P2;Temp;Humidity;BMP_temperature;BMP_pressure;BME280_temperature;BME280_humidity;BME280_pressure;Samples;Min_cycle;Max_cycle;Signal;HPM_P1;HPM_P2
2023/12/24 00:00:02;;;;;;;3.63;1.30;;;;;;;9.43;51.74;100504.53;5024520;28;20049;-73
2023/12/24 00:02:32;;;;;;;2.10;1.05;;;;;;;9.44;51.85;100514.44;5028186;28;20045;-73
2023/12/24 00:05:00;;;;;;;2.60;1.10;;;;;;;9.44;51.79;100517.19;5007998;28;20038;-74
2023/12/24 00:07:28;;;;;;;3.65;1.00;;;;;;;9.44;51.91;100515.31;5009130;28;20049;-73
2023/12/24 00:09:56;;;;;;;2.60;1.52;;;;;;;9.45;51.81;100524.38;5010273;28;20595;-73
2023/12/24 00:12:25;;;;;;;4.53;1.38;;;;;;;9.46;51.76;100520.66;5009462;28;20137;-73
2023/12/24 00:14:53;;;;;;;5.38;1.77;;;;;;;9.46;51.92;100515.19;5028024;28;20465;-73
2023/12/24 00:17:21;;;;;;;3.53;1.20;;;;;;;9.46;52.19;100502.41;5034472;28;20068;-73
2023/12/24 00:19:51;;;;;;;2.88;1.00;;;;;;;9.50;52.12;100513.03;5001255;28;20034;-73
2023/12/24 00:22:19;;;;;;;3.50;1.20;;;;;;;9.49;51.88;100508.59;5014881;28;20133;-73
2023/12/24 00:24:47;;;;;;;3.25;1.30;;;;;;;9.50;52.04;100496.63;5029528;28;20115;-73
2023/12/24 00:27:15;;;;;;;3.38;1.10;;;;;;;9.50;51.79;100504.84;5013849;28;20133;-73
2023/12/24 00:29:43;;;;;;;3.03;1.30;;;;;;;9.49;51.67;100505.88;5001964;28;20141;-73
2023/12/24 00:32:11;;;;;;;2.50;1.17;;;;;;;9.49;51.84;100493.06;4990994;28;20133;-73
2023/12/24 00:34:39;;;;;;;2.70;1.20;;;;;;;9.50;52.19;100491.19;4988000;28;20050;-73
2023/12/24 00:37:08;;;;;;;3.53;1.23;;;;;;;9.52;52.15;100497.38;5009405;28;20041;-73
2023/12/24 00:39:36;;;;;;;2.58;1.20;;;;;;;9.51;52.26;100493.78;4993215;28;20041;-73
2023/12/24 00:42:05;;;;;;;3.15;1.20;;;;;;;9.51;52.21;100501.97;5009515;28;20156;-73
2023/12/24 00:44:33;;;;;;;3.25;1.08;;;;;;;9.52;52.35;100481.00;5032807;28;20057;-72
2023/12/24 00:47:01;;;;;;;4.05;1.00;;;;;;;9.52;52.16;100486.44;5031914;28;20412;-72
2023/12/24 00:49:29;;;;;;;3.47;1.20;;;;;;;9.52;52.38;100490.06;5018870;28;20069;-72
2023/12/24 00:51:57;;;;;;;3.35;1.23;;;;;;;9.52;52.03;100494.66;5007802;28;20054;-72
2023/12/24 00:54:27;;;;;;;2.47;1.08;;;;;;;9.53;52.43;100494.50;4990150;28;20061;-73
2023/12/24 00:56:55;;;;;;;2.10;1.00;;;;;;;9.53;52.16;100497.25;5020890;28;20049;-73
2023/12/24 00:59:22;;;;;;;2.60;0.93;;;;;;;9.51;52.24;100493.78;5025990;28;21167;-73
2023/12/24 01:01:51;;;;;;;2.38;1.08;;;;;;;9.51;52.57;100499.25;5028200;28;20077;-73
2023/12/24 01:04:18;;;;;;;2.03;0.80;;;;;;;9.52;52.59;100502.84;5022589;28;20144;-73
2023/12/24 01:06:46;;;;;;;2.05;1.00;;;;;;;9.51;52.37;100498.38;5026011;28;20451;-72
2023/12/24 01:09:14;;;;;;;2.72;0.80;;;;;;;9.51;52.80;100507.44;5022766;28;20069;-72
2023/12/24 01:11:43;;;;;;;2.65;1.13;;;;;;;9.51;52.95;100498.38;4995472;28;20054;-72
2023/12/24 01:14:11;;;;;;;1.75;0.82;;;;;;;9.50;53.16;100507.56;5020419;28;20096;-72
2023/12/24 01:16:40;;;;;;;1.73;0.80;;;;;;;9.49;52.73;100495.81;5028412;28;20037;-73
2023/12/24 01:19:09;;;;;;;1.80;0.77;;;;;;;9.48;53.11;100496.81;5011633;28;20435;-73
2023/12/24 01:21:36;;;;;;;2.20;0.80;;;;;;;9.48;52.79;100493.22;5026906;28;20240;-72
2023/12/24 01:24:05;;;;;;;1.80;0.73;;;;;;;9.48;53.23;100499.53;5027184;28;20053;-73
2023/12/24 01:26:35;;;;;;;2.30;0.80;;;;;;;9.47;52.90;100484.16;5026130;28;20064;-72
2023/12/24 01:29:05;;;;;;;1.73;0.90;;;;;;;9.48;52.81;100498.66;4998722;28;20409;-73
2023/12/24 01:31:33;;;;;;;3.00;1.00;;;;;;;9.46;52.87;100493.34;5013670;28;20042;-72
2023/12/24 01:34:01;;;;;;;2.47;0.90;;;;;;;9.43;53.43;100475.34;5030084;28;20046;-72
2023/12/24 01:36:29;;;;;;;2.60;0.93;;;;;;;9.45;52.77;100470.63;5026455;28;20050;-73
2023/12/24 01:38:57;;;;;;;1.88;0.82;;;;;;;9.43;53.38;100464.41;5008579;28;20041;-73
2023/12/24 01:41:26;;;;;;;3.40;1.17;;;;;;;9.43;53.29;100466.28;5020342;28;20513;-72
2023/12/24 01:43:54;;;;;;;1.15;0.70;;;;;;;9.44;52.89;100460.69;5016711;28;20046;-72
2023/12/24 01:46:23;;;;;;;1.42;0.80;;;;;;;9.44;53.03;100455.22;5010945;28;20041;-72
2023/12/24 01:48:52;;;;;;;2.15;1.00;;;;;;;9.44;52.65;100459.81;5025623;28;20068;-73
2023/12/24 01:51:22;;;;;;;2.85;0.90;;;;;;;9.45;53.20;100450.63;5026377;28;20442;-73
2023/12/24 01:53:52;;;;;;;2.42;0.95;;;;;;;9.45;52.85;100432.38;5024591;28;20038;-72
2023/12/24 01:56:23;;;;;;;2.70;1.20;;;;;;;9.46;52.75;100430.50;5030637;28;20072;-72
2023/12/24 01:58:52;;;;;;;1.38;0.68;;;;;;;9.45;52.92;100424.19;5025262;28;20050;-72
2023/12/24 02:01:20;;;;;;;2.85;0.70;;;;;;;9.46;52.46;100417.72;5030237;28;20492;-72
2023/12/24 02:03:50;;;;;;;2.65;0.80;;;;;;;9.49;52.60;100426.66;5009356;28;20049;-72
2023/12/24 02:06:19;;;;;;;2.17;0.80;;;;;;;9.48;52.40;100425.78;5024235;28;20066;-72
2023/12/24 02:08:47;;;;;;;0.75;0.60;;;;;;;9.48;52.96;100419.44;5024521;28;20037;-72
2023/12/24 02:11:17;;;;;;;2.60;0.70;;;;;;;9.48;52.93;100409.41;5017479;28;20148;-72
2023/12/24 02:13:45;;;;;;;0.95;0.60;;;;;;;9.49;53.05;100410.25;5010356;28;20044;-74
2023/12/24 02:16:18;;;;;;;2.00;0.80;;;;;;;9.52;52.29;100423.63;5025364;28;20046;-72
2023/12/24 02:18:46;;;;;;;;;;;;;;;9.25;53.08;100421.44;5032722;28;20505;-72
2023/12/24 02:21:15;;;;;;;2.15;0.82;;;;;;;9.47;52.85;100424.06;5027429;28;19921;-73
2023/12/24 02:23:43;;;;;;;1.73;0.73;;;;;;;9.51;53.05;100425.47;5007455;28;20104;-72
2023/12/24 02:26:23;;;;;;;1.08;0.65;;;;;;;9.53;52.55;100414.44;5003822;28;20422;-72
2023/12/24 02:28:57;;;;;;;1.83;0.70;;;;;;;9.54;52.43;100427.09;5027061;28;20147;-72
2023/12/24 02:31:31;;;;;;;1.95;0.75;;;;;;;9.53;52.87;100417.16;5001565;28;20142;-72
2023/12/24 02:34:02;;;;;;;1.27;0.70;;;;;;;9.53;53.13;100411.69;5002820;28;20142;-73
2023/12/24 02:36:34;;;;;;;1.98;0.63;;;;;;;9.54;52.81;100422.50;5008652;28;20045;-72
2023/12/24 02:39:03;;;;;;;1.92;0.47;;;;;;;9.50;53.02;100399.16;5024921;28;20504;-72
2023/12/24 02:41:30;;;;;;;1.38;0.60;;;;;;;9.53;52.70;100400.75;5022529;28;20052;-72
2023/12/24 02:43:58;;;;;;;1.02;0.65;;;;;;;9.51;53.26;100400.91;5024879;28;20416;-72
2023/12/24 02:46:26;;;;;;;0.52;0.50;;;;;;;9.53;53.47;100400.75;5008839;28;20054;-73
2023/12/24 02:48:54;;;;;;;1.02;0.52;;;;;;;9.53;52.93;100395.31;5023445;28;20045;-72
2023/12/24 02:51:22;;;;;;;0.60;0.40;;;;;;;9.52;53.04;100388.09;5030567;28;20452;-72
2023/12/24 02:53:51;;;;;;;1.17;0.32;;;;;;;9.52;53.42;100388.97;5025788;28;20052;-72
2023/12/24 02:56:19;;;;;;;0.52;0.40;;;;;;;9.51;53.35;100372.72;4990446;28;20081;-73
2023/12/24 02:58:47;;;;;;;0.55;0.47;;;;;;;9.50;53.60;100384.63;4993722;28;20403;-74
2023/12/24 03:01:15;;;;;;;0.30;0.30;;;;;;;9.49;53.33;100378.34;5008658;28;20133;-74
2023/12/24 03:03:43;;;;;;;1.42;0.50;;;;;;;9.48;53.88;100379.34;5008099;28;20046;-73
2023/12/24 03:06:11;;;;;;;0.50;0.38;;;;;;;9.46;53.85;100374.00;4988486;28;20041;-73
2023/12/24 03:08:39;;;;;;;0.40;0.30;;;;;;;9.45;54.18;100363.22;5008951;28;20042;-74
2023/12/24 03:11:09;;;;;;;0.30;0.30;;;;;;;9.48;54.09;100376.63;5007649;28;20050;-74
2023/12/24 03:13:37;;;;;;;1.05;0.40;;;;;;;9.44;54.41;100369.69;5006263;28;20046;-74
2023/12/24 03:16:05;;;;;;;1.17;0.30;;;;;;;9.44;53.93;100367.81;5011084;28;20516;-74
2023/12/24 03:18:33;;;;;;;0.30;0.30;;;;;;;9.43;54.20;100362.50;5027399;28;20049;-74
2023/12/24 03:21:03;;;;;;;0.22;0.22;;;;;;;9.40;54.19;100358.19;5018058;28;20056;-74
2023/12/24 03:23:31;;;;;;;0.40;0.40;;;;;;;9.40;54.08;100355.47;5009844;28;20049;-74
2023/12/24 03:25:59;;;;;;;0.75;0.40;;;;;;;9.37;54.68;100352.97;5024258;28;20033;-73
2023/12/24 03:28:28;;;;;;;0.40;0.40;;;;;;;9.37;54.38;100339.31;5007714;28;20042;-74
2023/12/24 03:30:56;;;;;;;0.40;0.30;;;;;;;9.33;54.51;100345.19;5029403;28;20049;-74
2023/12/24 03:33:24;;;;;;;0.25;0.25;;;;;;;9.33;54.95;100353.41;5024649;28;20057;-74
2023/12/24 03:35:52;;;;;;;0.40;0.40;;;;;;;9.31;55.03;100339.88;5028574;28;20164;-74
2023/12/24 03:38:20;;;;;;;0.63;0.45;;;;;;;9.29;55.18;100339.13;5023732;28;20405;-74
2023/12/24 03:40:49;;;;;;;1.05;0.40;;;;;;;9.30;55.12;100337.28;5025110;28;20046;-74
2023/12/24 03:43:17;;;;;;;0.30;0.30;;;;;;;9.29;55.31;100335.53;5028221;28;20053;-74
2023/12/24 03:45:46;;;;;;;0.30;0.30;;;;;;;9.29;55.47;100336.41;5024803;28;20047;-74
2023/12/24 03:48:14;;;;;;;0.40;0.40;;;;;;;9.28;55.00;100333.81;5029680;28;20563;-73
2023/12/24 03:50:44;;;;;;;0.68;0.68;;;;;;;9.29;54.91;100341.00;5019262;28;20049;-74
2023/12/24 03:53:12;;;;;;;0.60;0.40;;;;;;;9.27;55.34;100332.94;5026324;28;20052;-74
2023/12/24 03:55:40;;;;;;;0.50;0.40;;;;;;;9.27;55.29;100324.75;5019460;28;20040;-74
2023/12/24 03:58:08;;;;;;;0.52;0.40;;;;;;;9.25;55.16;100332.22;5021025;28;20046;-74
2023/12/24 04:00:36;;;;;;;0.80;0.45;;;;;;;9.25;55.63;100329.47;5024173;28;20076;-74
2023/12/24 04:03:06;;;;;;;0.68;0.50;;;;;;;9.25;55.48;100334.06;5021075;28;20053;-74
2023/12/24 04:05:34;;;;;;;0.68;0.52;;;;;;;9.23;55.66;100327.91;5026337;28;20061;-74
2023/12/24 04:08:04;;;;;;;0.65;0.50;;;;;;;9.22;55.36;100323.44;5003437;28;20041;-74
2023/12/24 04:10:32;;;;;;;1.00;0.60;;;;;;;9.23;55.75;100314.25;5001154;28;20136;-74
2023/12/24 04:13:02;;;;;;;1.63;0.50;;;;;;;9.22;56.00;100315.25;5012448;28;20128;-74
2023/12/24 04:15:31;;;;;;;0.60;0.60;;;;;;;9.21;55.62;100316.25;5006973;28;20140;-74
2023/12/24 04:17:59;;;;;;;0.85;0.60;;;;;;;9.20;55.68;100304.47;5007503;28;20046;-73
2023/12/24 04:20:29;;;;;;;0.50;0.50;;;;;;;9.24;56.05;100316.00;4997624;28;20509;-73
2023/12/24 04:22:57;;;;;;;1.15;0.65;;;;;;;9.21;55.81;100302.59;4992425;28;20033;-74
2023/12/24 04:25:25;;;;;;;0.52;0.52;;;;;;;9.21;56.19;100305.34;5024037;28;20501;-74
2023/12/24 04:27:53;;;;;;;0.68;0.50;;;;;;;9.21;55.78;100303.47;5024635;28;20419;-74
2023/12/24 04:30:22;;;;;;;0.50;0.50;;;;;;;9.21;55.88;100299.88;5003007;28;20131;-74
2023/12/24 04:32:50;;;;;;;0.60;0.60;;;;;;;9.20;56.03;100296.28;5028212;28;20051;-74
2023/12/24 04:35:19;;;;;;;0.60;0.60;;;;;;;9.21;55.81;100291.69;5026545;28;20049;-74
2023/12/24 04:37:49;;;;;;;0.50;0.50;;;;;;;9.22;55.83;100285.22;5003608;28;20116;-74
2023/12/24 04:40:17;;;;;;;1.02;0.50;;;;;;;9.21;56.10;100292.56;5022939;28;20053;-73
2023/12/24 04:42:45;;;;;;;0.73;0.60;;;;;;;9.21;55.98;100297.16;5005350;28;20133;-74
2023/12/24 04:45:12;;;;;;;1.98;0.60;;;;;;;9.20;56.17;100290.81;5024238;28;20596;-74
2023/12/24 04:47:41;;;;;;;0.55;0.55;;;;;;;9.21;56.31;100288.97;5016663;28;20095;-74
2023/12/24 04:50:09;;;;;;;0.68;0.45;;;;;;;9.20;56.20;100284.50;4992638;28;20046;-74
2023/12/24 04:52:38;;;;;;;0.50;0.50;;;;;;;9.21;56.30;100288.97;5002079;28;20120;-74
2023/12/24 04:55:09;;;;;;;1.10;0.50;;;;;;;9.22;56.25;100282.50;4997011;28;20448;-73
2023/12/24 04:57:37;;;;;;;0.65;0.57;;;;;;;9.20;56.36;100289.97;5013147;28;20038;-74
2023/12/24 05:00:06;;;;;;;0.40;0.40;;;;;;;9.23;55.83;100292.41;5024520;28;20076;-74
2023/12/24 05:02:34;;;;;;;0.90;0.38;;;;;;;9.21;56.10;100284.34;5025000;28;20137;-74
2023/12/24 05:05:03;;;;;;;2.03;0.68;;;;;;;9.23;55.92;100286.97;5033064;28;20073;-74
2023/12/24 05:07:32;;;;;;;0.65;0.40;;;;;;;9.21;56.56;100278.91;5025710;28;20161;-73
2023/12/24 05:10:01;;;;;;;0.30;0.30;;;;;;;9.21;56.36;100270.72;5020266;28;20465;-73
2023/12/24 05:12:30;;;;;;;0.30;0.30;;;;;;;9.22;56.65;100272.44;5028359;28;20069;-73
2023/12/24 05:15:01;;;;;;;0.50;0.30;;;;;;;9.23;56.13;100276.03;5022769;28;20062;-74
2023/12/24 05:17:29;;;;;;;0.30;0.30;;;;;;;9.22;56.15;100274.31;5028388;28;20221;-74
2023/12/24 05:19:58;;;;;;;0.30;0.30;;;;;;;9.21;56.58;100273.44;5006891;28;20052;-74
2023/12/24 05:22:26;;;;;;;0.25;0.25;;;;;;;9.22;56.53;100266.97;5021188;28;20383;-74
2023/12/24 05:24:54;;;;;;;0.40;0.40;;;;;;;9.22;56.48;100269.72;5026252;28;20132;-74
2023/12/24 05:27:21;;;;;;;0.73;0.35;;;;;;;9.23;56.03;100270.56;5027744;28;20073;-74
2023/12/24 05:29:51;;;;;;;0.40;0.40;;;;;;;9.24;56.64;100269.56;5024542;28;20057;-74
2023/12/24 05:32:19;;;;;;;0.50;0.30;;;;;;;9.21;56.13;100276.16;5028142;28;20056;-74
2023/12/24 05:34:46;;;;;;;0.45;0.30;;;;;;;9.21;56.30;100272.56;5025823;28;20049;-74
2023/12/24 05:37:14;;;;;;;0.40;0.38;;;;;;;9.21;56.31;100275.31;5022515;28;20141;-73
2023/12/24 05:39:43;;;;;;;0.35;0.35;;;;;;;9.21;56.49;100267.13;5021122;28;20030;-74
2023/12/24 05:42:11;;;;;;;0.77;0.43;;;;;;;9.21;56.22;100269.84;5006396;28;20531;-74
2023/12/24 05:44:38;;;;;;;0.32;0.32;;;;;;;9.20;56.23;100263.53;5022631;28;20143;-74
2023/12/24 05:47:08;;;;;;;0.30;0.30;;;;;;;9.22;56.39;100266.97;5026265;28;20049;-74
2023/12/24 05:49:38;;;;;;;0.28;0.28;;;;;;;9.21;56.75;100265.25;5020447;28;20045;-74
2023/12/24 05:52:06;;;;;;;0.52;0.30;;;;;;;9.20;56.51;100257.19;5025024;28;20107;-73
2023/12/24 05:54:34;;;;;;;0.30;0.30;;;;;;;9.19;56.80;100258.19;5028423;28;20041;-74
2023/12/24 05:57:02;;;;;;;0.60;0.35;;;;;;;9.18;56.39;100260.06;5026696;28;20405;-73
2023/12/24 05:59:30;;;;;;;0.50;0.30;;;;;;;9.18;56.93;100257.31;5010184;28;20041;-73
2023/12/24 06:01:57;;;;;;;0.40;0.25;;;;;;;9.18;56.81;100257.31;5002481;28;20052;-74
2023/12/24 06:04:27;;;;;;;0.52;0.32;;;;;;;9.19;56.81;100264.50;4992166;28;20049;-73
2023/12/24 06:06:55;;;;;;;1.27;0.45;;;;;;;9.18;56.92;100264.66;5008810;28;20045;-74
2023/12/24 06:09:23;;;;;;;0.40;0.30;;;;;;;9.18;56.68;100272.84;5004501;28;20125;-73
2023/12/24 06:11:51;;;;;;;0.55;0.30;;;;;;;9.19;56.98;100269.13;5025542;28;20059;-73
2023/12/24 06:14:18;;;;;;;0.38;0.30;;;;;;;9.19;57.09;100275.44;5023361;28;20041;-73
2023/12/24 06:16:46;;;;;;;0.55;0.30;;;;;;;9.20;57.03;100259.94;5019924;28;20096;-74
2023/12/24 06:19:14;;;;;;;0.40;0.40;;;;;;;9.19;56.77;100266.38;4989682;28;20045;-73
2023/12/24 06:21:46;;;;;;;0.60;0.43;;;;;;;9.21;57.04;100269.84;5010199;28;20065;-74
2023/12/24 06:24:19;;;;;;;0.85;0.30;;;;;;;9.19;56.90;100256.31;4990377;28;20128;-74
2023/12/24 06:26:47;;;;;;;0.35;0.30;;;;;;;9.19;57.00;100263.66;4994123;28;20061;-74
2023/12/24 06:29:14;;;;;;;0.30;0.30;;;;;;;9.21;57.17;100265.25;5001749;28;20038;-74
2023/12/24 06:31:42;;;;;;;0.30;0.30;;;;;;;9.22;56.82;100266.13;5007134;28;20049;-74
2023/12/24 06:34:11;;;;;;;0.20;0.20;;;;;;;9.22;56.99;100266.97;5007427;28;20061;-74
2023/12/24 06:36:39;;;;;;;0.63;0.40;;;;;;;9.23;57.46;100254.19;5001226;28;20087;-74
2023/12/24 06:39:08;;;;;;;1.08;0.30;;;;;;;9.24;57.08;100264.97;5029083;28;20065;-74
2023/12/24 06:41:36;;;;;;;0.40;0.30;;;;;;;9.23;56.86;100246.00;5025148;28;20041;-74
2023/12/24 06:44:04;;;;;;;0.30;0.30;;;;;;;9.24;56.84;100261.38;5028131;28;20521;-74
2023/12/24 06:46:32;;;;;;;0.28;0.28;;;;;;;9.25;57.41;100247.56;5025651;28;20133;-74
2023/12/24 06:49:00;;;;;;;0.30;0.30;;;;;;;9.26;57.04;100259.34;5024222;28;20099;-73
2023/12/24 06:51:28;;;;;;;0.70;0.50;;;;;;;9.26;57.00;100256.63;5023280;28;20133;-74
2023/12/24 06:53:56;;;;;;;0.75;0.57;;;;;;;9.27;57.40;100253.75;5024087;28;20069;-74
2023/12/24 06:56:25;;;;;;;0.93;0.50;;;;;;;9.29;57.22;100256.34;5024925;28;20049;-74
2023/12/24 06:58:53;;;;;;;0.38;0.38;;;;;;;9.28;57.12;100254.63;5026375;28;20132;-73
2023/12/24 07:01:21;;;;;;;0.43;0.43;;;;;;;9.30;57.24;100258.09;5022565;28;20112;-74
2023/12/24 07:06:44;;;;;;;0.40;0.40;;;;;;;9.29;57.43;100245.44;5026798;28;20044;-74
2023/12/24 07:09:12;;;;;;;1.17;0.40;;;;;;;9.30;57.23;100247.16;5023710;28;20530;-75
2023/12/24 07:11:42;;;;;;;0.55;0.40;;;;;;;9.30;57.33;100248.03;5028335;28;20037;-75
2023/12/24 07:14:09;;;;;;;0.45;0.40;;;;;;;9.30;57.56;100237.09;5024264;28;20045;-75
2023/12/24 07:16:37;;;;;;;0.63;0.40;;;;;;;9.32;57.27;100239.69;5024561;28;20038;-75
2023/12/24 07:19:08;;;;;;;0.95;0.40;;;;;;;9.31;57.23;100240.69;5023826;28;20041;-74
2023/12/24 07:21:36;;;;;;;0.35;0.35;;;;;;;9.32;57.75;100246.03;5026627;28;20124;-75
2023/12/24 07:24:05;;;;;;;0.30;0.30;;;;;;;9.33;57.19;100238.69;5010553;28;20467;-75
2023/12/24 07:26:33;;;;;;;0.30;0.30;;;;;;;9.34;57.60;100240.41;5008133;28;20532;-74
2023/12/24 07:29:03;;;;;;;0.32;0.32;;;;;;;9.35;57.73;100233.94;5027215;28;20394;-74
2023/12/24 07:31:31;;;;;;;0.55;0.50;;;;;;;9.34;57.33;100229.47;5010205;28;20101;-75
2023/12/24 07:33:59;;;;;;;0.43;0.30;;;;;;;9.35;57.40;100236.66;5012944;28;20416;-75
2023/12/24 07:36:29;;;;;;;0.38;0.30;;;;;;;9.36;57.61;100238.41;5008320;28;20112;-75
2023/12/24 07:38:57;;;;;;;0.50;0.50;;;;;;;9.36;57.88;100239.25;5009354;28;20042;-75
2023/12/24 07:41:26;;;;;;;0.40;0.40;;;;;;;9.37;57.30;100227.34;5022557;28;20065;-75
2023/12/24 07:43:55;;;;;;;0.40;0.40;;;;;;;9.38;57.50;100220.00;5016416;28;20416;-75
2023/12/24 07:46:25;;;;;;;0.65;0.40;;;;;;;9.40;57.80;100228.97;5013652;28;20042;-74
2023/12/24 07:48:53;;;;;;;0.98;0.50;;;;;;;9.39;57.41;100217.19;5022116;28;20069;-74
2023/12/24 07:51:21;;;;;;;0.50;0.40;;;;;;;9.42;57.34;100235.13;5021590;28;20049;-75
2023/12/24 07:53:49;;;;;;;0.40;0.40;;;;;;;9.42;57.36;100235.97;5024387;28;20045;-74
2023/12/24 07:56:16;;;;;;;0.55;0.55;;;;;;;9.43;57.39;100236.84;5019599;28;20052;-74
2023/12/24 07:58:44;;;;;;;0.75;0.52;;;;;;;9.43;57.58;100236.84;5006906;28;20531;-75
2023/12/24 08:01:12;;;;;;;0.28;0.28;;;;;;;9.45;57.65;100235.72;5023937;28;20274;-75
2023/12/24 08:03:41;;;;;;;0.63;0.50;;;;;;;9.47;57.56;100243.78;5005953;28;20136;-74
2023/12/24 08:06:09;;;;;;;0.47;0.45;;;;;;;9.47;57.71;100238.31;5022548;28;20045;-75
2023/12/24 08:08:38;;;;;;;0.85;0.43;;;;;;;9.48;57.75;100245.50;5007985;28;20057;-74
2023/12/24 08:11:08;;;;;;;0.38;0.35;;;;;;;9.50;57.18;100239.88;5007216;28;20413;-74
2023/12/24 08:13:45;;;;;;;0.50;0.47;;;;;;;9.49;57.35;100229.97;5023616;28;20052;-75
2023/12/24 08:16:13;;;;;;;0.85;0.55;;;;;;;9.50;57.18;100237.13;5022784;28;20080;-74
2023/12/24 08:18:42;;;;;;;1.05;0.60;;;;;;;9.52;57.32;100229.66;5005245;28;20045;-74
2023/12/24 08:21:10;;;;;;;0.80;0.50;;;;;;;9.51;57.40;100227.94;5024767;28;20573;-75
2023/12/24 08:23:38;;;;;;;0.55;0.50;;;;;;;9.53;57.76;100225.94;4991492;28;20498;-75
2023/12/24 08:26:06;;;;;;;0.30;0.30;;;;;;;9.53;57.09;100239.59;5015605;28;20045;-74
2023/12/24 08:28:34;;;;;;;0.68;0.50;;;;;;;9.53;57.51;100229.53;5004486;28;20508;-75
2023/12/24 08:31:03;;;;;;;1.15;0.60;;;;;;;9.54;57.25;100234.00;5025999;28;20048;-75
2023/12/24 08:33:30;;;;;;;0.95;0.50;;;;;;;9.55;57.24;100233.00;5008497;28;20094;-75
2023/12/24 08:36:00;;;;;;;0.50;0.45;;;;;;;9.57;57.65;100233.72;5029893;28;20132;-75
2023/12/24 08:38:28;;;;;;;0.70;0.40;;;;;;;9.56;57.38;100237.47;5026892;28;20049;-76
2023/12/24 08:40:56;;;;;;;1.15;0.40;;;;;;;9.57;56.96;100233.72;5025433;28;20382;-75
2023/12/24 08:43:23;;;;;;;0.40;0.40;;;;;;;9.57;57.07;100214.59;5026553;28;20049;-75
2023/12/24 08:45:51;;;;;;;0.45;0.40;;;;;;;9.59;57.25;100217.16;5011787;28;20050;-75
2023/12/24 08:48:19;;;;;;;0.75;0.35;;;;;;;9.60;57.53;100221.63;5013326;28;20425;-75
2023/12/24 08:50:47;;;;;;;0.60;0.30;;;;;;;9.59;57.28;100222.63;5005472;28;20516;-75
2023/12/24 08:53:17;;;;;;;0.52;0.38;;;;;;;9.62;57.03;100223.22;5014742;28;20513;-75
2023/12/24 08:55:45;;;;;;;0.60;0.40;;;;;;;9.61;57.32;100221.47;5009226;28;20140;-75
2023/12/24 08:58:13;;;;;;;0.32;0.32;;;;;;;9.63;57.54;100222.22;5022954;28;20103;-75
2023/12/24 09:00:41;;;;;;;0.32;0.25;;;;;;;9.64;57.19;100214.88;5007286;28;20401;-75
2023/12/24 09:03:10;;;;;;;0.40;0.30;;;;;;;9.65;56.94;100233.00;5023923;28;20061;-75
2023/12/24 09:05:38;;;;;;;0.75;0.32;;;;;;;9.65;57.10;100224.81;5007735;28;20034;-75
2023/12/24 09:08:06;;;;;;;0.60;0.40;;;;;;;9.65;57.07;100233.00;5019691;28;20045;-75
2023/12/24 09:10:38;;;;;;;0.55;0.40;;;;;;;9.67;57.65;100234.56;5026252;28;20049;-74
2023/12/24 09:13:06;;;;;;;0.55;0.40;;;;;;;9.66;57.44;100230.09;5017367;28;20053;-75
2023/12/24 09:15:34;;;;;;;0.50;0.40;;;;;;;9.67;57.17;100230.97;5012214;28;20050;-76
2023/12/24 09:18:02;;;;;;;0.52;0.40;;;;;;;9.67;57.37;100229.09;5031841;28;20050;-75
2023/12/24 09:20:30;;;;;;;0.80;0.52;;;;;;;9.68;57.68;100214.44;5012825;28;20522;-75
2023/12/24 09:22:58;;;;;;;0.50;0.40;;;;;;;9.69;57.53;100235.28;5011568;28;20119;-75
2023/12/24 09:25:26;;;;;;;0.40;0.40;;;;;;;9.68;57.87;100211.69;4995386;28;20355;-75
2023/12/24 09:27:56;;;;;;;0.55;0.55;;;;;;;9.70;57.32;100217.03;5017534;28;20051;-76
2023/12/24 09:30:24;;;;;;;0.50;0.40;;;;;;;9.68;57.40;100208.97;5023682;28;20054;-75
2023/12/24 09:32:52;;;;;;;0.70;0.40;;;;;;;9.69;57.20;100220.75;4998145;28;20042;-76
2023/12/24 09:35:22;;;;;;;0.30;0.30;;;;;;;9.70;57.77;100214.28;5020191;28;20508;-76
2023/12/24 09:37:50;;;;;;;0.75;0.50;;;;;;;9.70;57.22;100225.22;5016899;28;20041;-76
2023/12/24 09:40:18;;;;;;;0.30;0.30;;;;;;;9.71;57.88;100224.22;5005635;28;20053;-75
2023/12/24 09:42:46;;;;;;;0.57;0.40;;;;;;;9.71;57.55;100221.50;5024503;28;20037;-76
2023/12/24 09:45:15;;;;;;;0.68;0.50;;;;;;;9.75;57.44;100236.56;5012911;28;20049;-76
2023/12/24 09:47:43;;;;;;;0.90;0.50;;;;;;;9.73;57.39;100239.47;5027826;28;20051;-76
2023/12/24 09:50:12;;;;;;;1.02;0.50;;;;;;;9.75;57.31;100245.63;5005522;28;20509;-76
2023/12/24 09:52:40;;;;;;;0.45;0.40;;;;;;;9.76;57.78;100228.25;5020589;28;20504;-76
2023/12/24 09:55:09;;;;;;;0.30;0.30;;;;;;;9.77;57.57;100242.75;5047659;28;20041;-75
2023/12/24 09:57:37;;;;;;;0.88;0.30;;;;;;;9.77;58.02;100227.22;5029988;28;20065;-75
2023/12/24 10:00:08;;;;;;;0.57;0.40;;;;;;;9.79;57.42;100243.50;5026630;28;20109;-75
2023/12/24 10:02:38;;;;;;;0.57;0.40;;;;;;;9.78;57.90;100239.91;5044569;28;20041;-74
2023/12/24 10:05:07;;;;;;;0.50;0.40;;;;;;;9.79;57.65;100238.88;5032795;28;20075;-75
2023/12/24 10:07:39;;;;;;;0.55;0.40;;;;;;;9.83;57.50;100228.50;5031663;28;20039;-76
2023/12/24 10:10:10;;;;;;;0.65;0.50;;;;;;;9.82;57.85;100235.84;5041586;28;20059;-74
2023/12/24 10:12:38;;;;;;;0.98;0.50;;;;;;;9.83;57.75;100232.13;5046165;28;20120;-75
2023/12/24 10:15:06;;;;;;;1.33;0.50;;;;;;;9.84;57.86;100231.09;5043832;28;20265;-76
2023/12/24 10:17:36;;;;;;;0.55;0.40;;;;;;;9.85;57.60;100230.09;5026868;28;20037;-76
2023/12/24 10:20:09;;;;;;;0.98;0.50;;;;;;;9.88;57.95;100218.03;5041954;28;20053;-74
2023/12/24 10:22:37;;;;;;;0.90;0.50;;;;;;;9.87;57.89;100212.69;5047539;28;20124;-75
2023/12/24 10:25:07;;;;;;;0.95;0.60;;;;;;;9.89;57.72;100211.56;5026496;28;20148;-73
2023/12/24 10:27:35;;;;;;;3.85;1.30;;;;;;;9.89;57.65;100205.22;5028902;28;20049;-74
2023/12/24 10:30:12;;;;;;;1.23;0.77;;;;;;;9.91;58.01;100209.50;5023561;28;20064;-77
2023/12/24 10:32:40;;;;;;;1.15;0.70;;;;;;;9.89;57.82;100200.63;5037801;28;20527;-76
2023/12/24 10:35:10;;;;;;;1.30;0.60;;;;;;;9.93;57.76;100196.56;5040147;28;20045;-76
2023/12/24 10:37:38;;;;;;;0.45;0.45;;;;;;;9.93;57.60;100203.91;5045673;28;20041;-76
2023/12/24 10:40:08;;;;;;;1.00;0.40;;;;;;;9.96;57.74;100203.63;5050773;28;20045;-76
2023/12/24 10:42:38;;;;;;;1.90;0.50;;;;;;;9.95;58.04;100201.91;5045906;28;20501;-77
2023/12/24 10:45:06;;;;;;;0.93;0.50;;;;;;;9.96;58.02;100200.91;5040832;28;20045;-76
2023/12/24 10:47:35;;;;;;;1.45;0.43;;;;;;;9.99;57.72;100200.63;5047970;28;20048;-76
2023/12/24 10:50:04;;;;;;;1.20;0.50;;;;;;;9.96;57.67;100188.09;5025205;28;20033;-78
2023/12/24 10:52:34;;;;;;;1.58;0.65;;;;;;;10.00;57.89;100172.25;5029818;28;20415;-75
2023/12/24 10:55:02;;;;;;;0.82;0.70;;;;;;;9.98;57.65;100196.16;5044180;28;20064;-76
2023/12/24 10:57:41;;;;;;;1.42;0.73;;;;;;;10.01;57.83;100210.38;5045476;28;20079;-75
2023/12/24 11:00:12;;;;;;;1.38;0.70;;;;;;;10.01;57.99;100195.84;5049831;28;20063;-74
2023/12/24 11:02:44;;;;;;;1.13;0.60;;;;;;;10.03;58.18;100207.50;5050766;28;20049;-76
2023/12/24 11:05:12;;;;;;;1.00;0.60;;;;;;;9.99;58.14;100197.88;5046825;28;20055;-77
2023/12/24 11:07:51;;;;;;;0.45;0.45;;;;;;;10.05;58.29;100191.81;5044966;28;20126;-75
2023/12/24 11:10:40;;;;;;;1.55;0.73;;;;;;;10.02;57.90;100194.84;5044254;28;20548;-73
2023/12/24 11:13:09;;;;;;;1.58;0.60;;;;;;;10.02;58.13;100200.31;5045548;28;20052;-74
2023/12/24 11:15:40;;;;;;;0.65;0.60;;;;;;;10.01;57.94;100185.78;5026515;28;20042;-74
2023/12/24 11:18:08;;;;;;;0.70;0.60;;;;;;;10.03;57.88;100191.09;5031136;28;20096;-73
2023/12/24 11:20:41;;;;;;;0.80;0.60;;;;;;;10.05;58.02;100194.56;5042749;28;20053;-75
2023/12/24 11:23:11;;;;;;;;;;;;;;;9.77;59.00;100197.19;5028949;28;20044;-74
2023/12/24 11:25:41;;;;;;;1.05;0.50;;;;;;;9.99;57.95;100182.31;5035463;28;20119;-76
2023/12/24 11:28:12;;;;;;;0.52;0.50;;;;;;;10.03;58.46;100194.69;5029649;28;20096;-75
2023/12/24 11:31:03;;;;;;;1.40;0.70;;;;;;;10.05;58.63;100169.94;5026092;28;20060;-75
2023/12/24 11:33:47;;;;;;;0.98;0.70;;;;;;;10.06;58.28;100147.06;5021884;28;20088;-75
2023/12/24 11:36:18;;;;;;;0.63;0.60;;;;;;;10.05;58.13;100176.28;5040544;28;20044;-76
2023/12/24 11:38:48;;;;;;;1.33;0.90;;;;;;;10.06;58.39;100167.06;5042121;28;20036;-75
2023/12/24 11:41:19;;;;;;;1.43;1.00;;;;;;;10.05;58.48;100162.59;5043956;28;20033;-74
2023/12/24 11:43:55;;;;;;;1.42;0.82;;;;;;;10.09;58.42;100155.81;5040621;28;20071;-74